Tiempo atmosférico en la estación meteorológica de Antequera, Málaga (400 m.)



Fecha
DESCASC
Temp. máxima en grados centígrados (hora)
DESCASC
Temp. mínima en grados centígrados (hora)
DESCASC
Temp. media en grados centígrados
DESCASC
Racha de viento máxima en m/sg (hora)
DESCASC
Velocidad máxima media en intervalos de 10 minutos(hora)
DESCASC
Precipitaciones diarias en mm
DESCASC
Precipitaciones de 00:00 a 06:00 en mm
DESCASC
Precipitaciones de 06:00 a 12:00 en mm
DESCASC
Precipitaciones de 12:00 a 18:00 en mm
DESCASC
Precipitaciones de 18:00 a 24:00 en mm
DESCASC
21-02-2019 15 (14:20) 9.4 (08:00) 12.2 11.11 (08:50) 6.67 (08:40) 0 0 0 0 0
20-02-2019 15.2 (15:20) 7.7 (07:50) 11.4 9.44 (20:20) 5 (10:20) 0 0 0 0 0
19-02-2019 15.8 (16:10) 6.7 (09:10) 11.3 5.56 (00:10) 2.78 (15:00) 0 0 0 0 0
18-02-2019 15 (13:20) 8.3 (08:00) 11.7 11.39 (04:00) 5.56 (05:20) 0 0 0 0 0
17-02-2019 14.7 (14:40) 9.5 (00:00) 12.1 12.5 (13:40) 6.94 (13:40) 0 0 0 0 0
16-02-2019 14.5 (15:50) 9.3 (00:00) 11.9 11.67 (17:30) 6.67 (15:30) 0 0 0 0 0
15-02-2019 13.9 (14:00) 9.6 (00:00) 11.8 14.72 (13:00) 8.33 (11:30) 0 0 0 0 0
14-02-2019 13.3 (14:00) 8.5 (00:00) 10.9 16.11 (09:50) 8.61 (10:10) 0 0 0 0 0
13-02-2019 14.3 (14:40) 7.8 (00:00) 11.1 13.06 (23:20) 5.83 (23:20) 0 0 0 0 0
12-02-2019 14.2 (12:30) 4.4 (00:00) 9.3 14.72 (13:40) 8.06 (13:20) 0 0 0 0 0
11-02-2019 15.9 (16:00) 7.7 (00:00) 11.8 4.17 (13:50) 1.67 (15:30) 0 0 0 0 0
10-02-2019 13.4 (16:50) 2 (00:00) 7.7 5.56 (17:00) 1.67 (13:20) 0 0 0 0 0
09-02-2019 16.8 (16:00) -0.4 (00:00) 8.2 4.44 (16:00) 2.22 (17:50) 0 0 0 0 0
08-02-2019 18.5 (15:40) 0 (00:00) 9.3 3.61 (14:40) 1.67 (19:10) 0 0 0 0 0
07-02-2019 17.6 (15:50) 1.7 (00:00) 9.7 5.56 (15:20) 2.5 (14:30) 0 0 0 0 0
06-02-2019 19.4 (16:10) 0.3 (00:00) 9.8 5.83 (14:50) 2.5 (14:20) 0 0 0 0 0
05-02-2019 17.9 (15:50) -0.9 (-00:0) 8.5 4.72 (16:40) 2.22 (19:30) 0 0 0 0 0
04-02-2019 14.6 (17:10) -2.7 (-00:0) 6 3.61 (15:30) 2.78 (19:50) 0 0 0 0 0
03-02-2019 10.4 (16:10) 0 (00:00) 5.2 8.33 (16:10) 3.61 (15:30) 0 0 0 0 0
02-02-2019 10.6 (16:20) 3.6 (00:00) 7.1 12.5 (16:40) 5.83 (16:30) 0 0 0 0 0
01-02-2019 13.1 (14:30) 5.9 (00:00) 9.5 16.39 (15:40) 7.22 (12:50) 19.6 7.4 6.8 0.8 4.6
31-01-2019 14 (16:00) 9.7 (00:00) 11.8 10.83 (16:30) 4.72 (16:20) 2.4 2.1 0.1 0.1 0.1
30-01-2019 13.1 (14:50) 8.4 (00:00) 10.8 9.72 (02:40) 4.17 (02:40) 0.4 0 0.1 0 0.3
29-01-2019 11.9 (13:30) 7.7 (00:00) 9.8 9.44 (14:30) 4.72 (14:10) 0 0 0 0 0
28-01-2019 12.3 (15:30) 1.5 (00:00) 6.9 9.17 (17:50) 5 (16:10) 0 0 0 0 0
27-01-2019 13.5 (13:30) 2.7 (00:00) 8.1 9.17 (12:50) 4.72 (14:10) 0 0 0 0 0
26-01-2019 18.7 (14:50) 1 (00:00) 9.9 4.72 (14:00) 2.5 (19:30) 0 0 0 0 0
25-01-2019 17.4 (15:30) 1.4 (00:00) 9.4 6.39 (16:50) 3.33 (16:50) 0 0 0 0 0
24-01-2019 14 (16:40) 6.2 (00:00) 10.1 7.5 (00:20) 3.33 (00:20) 0 0 0 0 0

Gráficas

Temp. máximas Temp. mínimas Temp. medias Precipitaciones Rachas de viento máximas Velocidades máximas media en intervalos de 10 minutos

Datos horarios

Fecha y hora oficial Temperatura (ºC) Velocidad del viento (km/h) Dirección del viento Racha (km/h) Dirección de racha Precipitación (mm) Presión (hPa) Tendencia (hPa) Humedad (%)
2019-02-22 23:00:00 9.1 0 Calma 5 Sudoeste 0 981.3 0.9 62
2019-02-22 22:00:00 10.4 0 Calma 8 Noroeste 0 981 1 51
2019-02-22 21:00:00 11.9 4 Noroeste 7 Noroeste 0 980.6 0.7 42
2019-02-22 20:00:00 12.9 0 Calma 14 Sur 0 980.4 0 41
2019-02-22 19:00:00 14.9 7 Sur 17 Sur 0 980 -0.6 39
2019-02-22 18:00:00 16.5 8 Sudeste 18 Sur 0 979.9 -1 36
2019-02-22 17:00:00 17.4 11 Sur 25 Sudeste 0 980.4 -0.7 34
2019-02-22 16:00:00 16.9 10 Sur 23 Sur 0 980.6 -1 39
2019-02-22 15:00:00 16.5 9 Sur 23 Sudeste 0 980.9 -1.1 44
2019-02-22 14:00:00 16 12 Sudeste 35 Sudeste 0 981.1 -0.9 51
2019-02-22 13:00:00 14.8 14 Sudeste 35 Sudeste 0 981.6 -0.2 58
2019-02-22 12:00:00 13.4 15 Sudeste 35 Sudeste 0 982 0.5 63
2019-02-22 11:00:00 12.2 13 Sudeste 30 Sudeste 0 982 1 69
2019-02-22 10:00:00 10.9 10 Sudeste 22 Este 0 981.8 0.6 72
2019-02-22 09:00:00 9.5 12 Este 22 Este 0 981.5 0.3 78
2019-02-22 08:00:00 9.2 13 Este 29 Sudeste 0 981 0 78
2019-02-22 07:00:00 9.1 11 Sudeste 26 Sudeste 0 981.2 -0.2 81
2019-02-22 06:00:00 9 4 Sudeste 26 Sudeste 0 981.2 -0.2 80
2019-02-22 05:00:00 9.4 12 Sudeste 32 Sudeste 0 981 -0.7 78
2019-02-22 04:00:00 9.6 13 Sudeste 31 Sudeste 0 981.4 -0.2 76
2019-02-22 03:00:00 9.8 12 Sudeste 35 Sur 0 981.4 -0.1 77
2019-02-22 02:00:00 10.1 14 Sudeste 37 Sudeste 0 981.7 0.4 74
2019-02-22 01:00:00 10.3 13 Sudeste 35 Sudeste 0 981.6 0.5 75
2019-02-22 00:00:00 10.5 14 Sudeste 39 Sudeste 0 981.5 1.4 75
2019-02-21 23:00:00 10.5 14 Sudeste 31 Sudeste 0 981.3 1.9 75
2019-02-21 22:00:00 10.5 5 Sudeste 26 Sudeste 0 981.1 2.4 70
2019-02-21 21:00:00 10.9 13 Sudeste 35 Sudeste 0 980.1 1.8 70
2019-02-21 20:00:00 11 12 Sudeste 31 Sudeste 0 979.4 1.2 70
2019-02-21 19:00:00 11.8 8 Sudeste 23 Sudeste 0 978.7 0.8 65
2019-02-21 18:00:00 12.4 12 Sudeste 36 Este 0 978.3 0.4 63
2019-02-21 17:00:00 13.5 18 Sudeste 38 Sudeste 0 978.2 0.2 59
2019-02-21 16:00:00 13.9 18 Sudeste 32 Sudeste 0 977.9 -1 57
2019-02-21 15:00:00 14.7 15 Sudeste 36 Sudeste 0 977.9 -1.2 54
2019-02-21 14:00:00 14.3 19 Sudeste 40 Sudeste 0 978 -0.9 53
2019-02-21 13:00:00 13.3 15 Sur 35 Sudeste 0 978.9 0.6 58
2019-02-21 12:00:00 12.7 15 Sur 33 Sudeste 0 979.1 1.7 62
2019-02-21 11:00:00 12.1 11 Sur 33 Sudeste 0 978.9 2.2 65
2019-02-21 10:00:00 11 14 Sudeste 40 Sudeste 0 978.3 1.8 69
2019-02-21 09:00:00 10.1 20 Sudeste 40 Sudeste 0 977.4 1.3 69
2019-02-21 08:00:00 9.5 19 Sudeste 39 Sudeste 0 976.7 1 75
2019-02-21 07:00:00 9.7 6 Sudeste 33 Sudeste 0 976.5 0.4 73
2019-02-21 06:00:00 10 13 Sudeste 34 Sudeste 0 976.1 -0.2 73
2019-02-21 05:00:00 10.2 15 Sudeste 32 Sudeste 0 975.7 -0.7 74
2019-02-21 04:00:00 10.4 9 Sur 32 Sur 0 976.1 -0.4 71
2019-02-21 03:00:00 10.5 16 Sudeste 35 Sudeste 0 976.3 -0.2 72
2019-02-21 02:00:00 10.6 11 Sur 33 Sur 0 976.4 -0.1 74
2019-02-21 01:00:00 10.5 10 Sudeste 24 Sudeste 0 976.5 0.7 77
2019-02-21 00:00:00 10.6 13 Sudeste 32 Sudeste 0 976.5 1.1 75
2019-02-20 23:00:00 10.3 15 Sur 32 Sur 0 976.5 1.6 77
2019-02-20 22:00:00 10.1 13 Sudeste 31 Sur 0 975.8 1.6 76
2019-02-20 21:00:00 10.4 5 Sur 34 Sudeste 0 975.4 1.5 75
2019-02-20 20:00:00 10.6 17 Sudeste 34 Sudeste 0 974.9 1.2 74
2019-02-20 19:00:00 11.8 4 Sur 20 Sur 0 974.2 0.3 64
2019-02-20 18:00:00 13.3 7 Sur 23 Sudeste 0 973.9 -0.2 57
2019-02-20 17:00:00 14.1 11 Sudeste 27 Este 0 973.7 -0.7 48
2019-02-20 16:00:00 14.6 12 Sudeste 28 Sudeste 0 973.9 -0.8 45
2019-02-20 15:00:00 14.5 14 Sur 31 Sudeste 0 974.1 -0.9 45
2019-02-20 14:00:00 14.7 9 Sudeste 32 Sudeste 0 974.4 -0.3 51
2019-02-20 13:00:00 13.7 15 Sudeste 33 Sur 0 974.7 0.6 55
2019-02-20 12:00:00 13.3 13 Sudeste 31 Sudeste 0 975 1.5 58
2019-02-20 11:00:00 12 16 Sudeste 34 Sudeste 0 974.7 1.7 70
2019-02-20 10:00:00 11.1 17 Sudeste 31 Sur 0 974.1 1.7 78
2019-02-20 09:00:00 9.8 11 Sudeste 24 Sudeste 0 973.5 1.5 90
2019-02-20 08:00:00 7.9 3 Nordeste 8 Nordeste 0 973 1 92
2019-02-20 07:00:00 8.4 0 Calma 13 Sudeste 0 972.4 0.1 90
2019-02-20 06:00:00 9.4 2 Este 11 Este 0 972 -0.5 90
2019-02-20 05:00:00 9.1 0 Calma 11 Sudeste 0 972 -0.5 89
2019-02-20 04:00:00 8.7 0 Calma 8 Sudeste 0 972.3 0 88
2019-02-20 03:00:00 8.8 0 Calma 10 Sudoeste 0 972.5 0.2 87
2019-02-20 02:00:00 9.4 2 Sudoeste 13 Sur 0 972.5 0.4 84
2019-02-20 01:00:00 9.4 0 Calma 17 Sur 0 972.3 0.5 83
2019-02-20 00:00:00 9.5 0 Calma 10 Sur 0 972.3 0.9 83
2019-02-19 23:00:00 9.4 0 Calma 6 Oeste 0 972.1 1.3 78
2019-02-19 22:00:00 10.2 0 Calma 5 Noroeste 0 971.8 1.9 74
2019-02-19 21:00:00 11 4 Noroeste 13 Sur 0 971.4 2.1 65
2019-02-19 20:00:00 12.1 0 Calma 12 Sur 0 970.8 1.5 62
2019-02-19 19:00:00 13.4 4 Sur 13 Sudeste 0 969.9 0.2 54
2019-02-19 18:00:00 15.1 6 Sur 12 Sur 0 969.3 -0.7 48
2019-02-19 17:00:00 15.5 4 Sur 13 Sur 0 969.3 -1.1 45
2019-02-19 16:00:00 15.5 4 Sur 17 Sur 0 969.7 -1.5 45
2019-02-19 15:00:00 15.2 10 Sur 20 Sudeste 0 970 -1.5 43
2019-02-19 14:00:00 15 6 Sur 17 Sur 0 970.4 -1.2 50
2019-02-19 13:00:00 14.1 0 Calma 9 Norte 0 971.2 -0.4 57
2019-02-19 12:00:00 13.2 0 Calma 9 Sur 0 971.5 0.3 64
2019-02-19 11:00:00 9.8 0 Calma 0 Calma 0 971.6 0.9 75
2019-02-19 10:00:00 8.2 0 Calma 6 Noroeste 0 971.6 0.9 81
2019-02-19 09:00:00 6.9 0 Calma 5 Oeste 0 971.2 0.5 82
2019-02-19 08:00:00 7.3 0 Calma 4 Nordeste 0 970.7 0.4 78
2019-02-19 07:00:00 8.1 0 Calma 8 Nordeste 0 970.7 0.2 76
2019-02-19 06:00:00 8.9 2 Norte 10 Noroeste 0 970.7 0.3 76
2019-02-19 05:00:00 9.9 0 Calma 6 Sudoeste 0 970.3 0.3 70
2019-02-19 04:00:00 10.3 4 Oeste 9 Oeste 0 970.5 0.4 70
2019-02-19 03:00:00 10.8 5 Noroeste 11 Noroeste 0 970.4 0.6 62
2019-02-19 02:00:00 11.1 2 Oeste 15 Sur 0 970 0.1 57
2019-02-19 01:00:00 10.9 0 Calma 20 Este 0 970.1 0.7 65
2019-02-19 00:00:00 11.1 6 Este 13 Sudeste 0 969.8 0.9 68
2019-02-18 23:00:00 11.7 7 Sur 17 Sudeste 0 969.9 1.5 64
2019-02-18 22:00:00 11.5 6 Este 24 Sur 0 969.4 1.5 58
2019-02-18 21:00:00 11.9 10 Sur 27 Sur 0 968.9 1.4 58
2019-02-18 20:00:00 11.7 0 Calma 22 Sudeste 0 968.4 1.1 59
2019-02-18 19:00:00 12 8 Sur 24 Sur 0 967.9 0.6 58
2019-02-18 18:00:00 12.6 5 Sur 23 Sur 0 967.5 -0.1 54
2019-02-18 17:00:00 13.2 13 Sur 22 Sudeste 0 967.3 -0.5 52
2019-02-18 16:00:00 13.7 5 Sudeste 29 Sudeste 0 967.3 -1.1 50
2019-02-18 15:00:00 13.8 12 Sudeste 34 Sudeste 0 967.6 -1.5 48
2019-02-18 14:00:00 14.4 13 Sur 33 Sur 0 967.8 -1.3 50
2019-02-18 13:00:00 14.1 15 Sudeste 37 Este 0 968.4 -0.6 54
2019-02-18 12:00:00 13.1 12 Sur 30 Este 0 969.1 0.2 60
2019-02-18 11:00:00 12.3 13 Sudeste 33 Sudeste 0 969.1 0.4 64
2019-02-18 10:00:00 10.7 10 Sudeste 26 Sudeste 0 969 0.2 70
2019-02-18 09:00:00 8.9 5 Nordeste 13 Este 0 968.9 0.4 82
2019-02-18 08:00:00 8.3 10 Nordeste 17 Nordeste 0 968.7 -0.2 82
2019-02-18 07:00:00 9.2 6 Nordeste 27 Sur 0 968.8 -0.6 75
2019-02-18 06:00:00 10.3 15 Sudeste 36 Sudeste 0 968.5 -1.4 64
2019-02-18 05:00:00 10.3 14 Sur 32 Sur 0 968.9 -1.5 64
2019-02-18 04:00:00 10.5 15 Sur 41 Sur 0 969.4 -1.7 65
2019-02-18 03:00:00 10.3 13 Sudeste 32 Sur 0 969.9 -1.5 66
2019-02-18 02:00:00 9.9 11 Sudeste 27 Sur 0 970.4 -1.5 73
2019-02-18 01:00:00 10.2 0 Calma 17 Sudoeste 0 971.1 -0.7 72
2019-02-18 00:00:00 11.2 12 Sur 31 Sudeste 0 971.4 -0.1 66
2019-02-17 23:00:00 10.1 5 Sur 39 Sudeste 0 971.9 0.4 72
2019-02-17 22:00:00 10.2 21 Sur 41 Sur 0 971.8 0.7 73
2019-02-17 21:00:00 10.8 13 Sur 36 Sudeste 0 971.5 0.4 68
2019-02-17 20:00:00 10.8 19 Sur 41 Sur 0 971.5 0 70
2019-02-17 19:00:00 11.6 19 Sur 39 Sudeste 0 971.1 -0.6 66
2019-02-17 18:00:00 12.9 16 Sur 37 Sur 0 971.1 -1.2 63
2019-02-17 17:00:00 14 16 Sur 40 Sur 0 971.5 -1.7 57
2019-02-17 16:00:00 14.2 21 Sur 41 Sur 0 971.7 -2.3 57
2019-02-17 15:00:00 14.1 21 Sudeste 41 Sur 0 972.3 -2.1 56
2019-02-17 14:00:00 13.7 19 Sur 45 Sudeste 0 973.2 -1.5 59
2019-02-17 13:00:00 13.2 22 Sur 41 Sur 0 974 -0.4 60
2019-02-17 12:00:00 12.9 17 Sur 39 Sur 0 974.4 0.1 61
2019-02-17 11:00:00 11.8 18 Sur 38 Sur 0 974.7 1.3 65
2019-02-17 10:00:00 11.4 13 Sudeste 36 Sur 0 974.4 1.2 66
2019-02-17 09:00:00 10.3 14 Sudeste 31 Sur 0 974.3 1.1 71
2019-02-17 08:00:00 9.9 14 Sur 41 Sur 0 973.4 0.2 72
2019-02-17 07:00:00 9.7 13 Sur 40 Sur 0 973.2 -0.2 75
2019-02-17 06:00:00 10 17 Sur 36 Sur 0 973.2 -0.5 71
2019-02-17 05:00:00 10.1 13 Sur 33 Sudeste 0 973.2 -0.5 71
2019-02-17 04:00:00 10.3 5 Sur 38 Sur 0 973.4 -1.3 71
2019-02-17 03:00:00 10.4 15 Sur 35 Sudeste 0 973.7 -1.4 71
2019-02-17 02:00:00 10.4 19 Sudeste 41 Sur 0 973.7 -1.4 72
2019-02-17 01:00:00 10.5 13 Sudeste 29 Sudeste 0 974.7 -0.2 74
2019-02-17 00:00:00 10.6 9 Sudeste 37 Sudeste 0 975.1 0.9 74
2019-02-16 23:00:00 10.8 14 Sudeste 35 Sudeste 0 975.1 1.1 72
2019-02-16 22:00:00 10.6 7 Este 26 Sudeste 0 974.9 1.5 76
2019-02-16 21:00:00 10.9 8 Sudeste 38 Sur 0 974.2 1 75
2019-02-16 20:00:00 11.5 12 Sudeste 39 Sudeste 0 974 0.9 67
2019-02-16 19:00:00 11.6 14 Sudeste 39 Sudeste 0 973.4 0.2 64
2019-02-16 18:00:00 12.6 15 Sudeste 42 Sur 0 973.2 -0.4 59
2019-02-16 17:00:00 13 18 Sudeste 38 Sudeste 0 973.1 -1.1 59
2019-02-16 16:00:00 13.8 21 Sudeste 41 Sur 0 973.2 -1.8 58
2019-02-16 15:00:00 13.3 17 Sudeste 39 Sudeste 0 973.6 -1.6 60
2019-02-16 14:00:00 13.3 15 Sudeste 32 Sur 0 974.2 -0.7 58
2019-02-16 13:00:00 13.3 15 Sur 35 Sudeste 0 975 0.6 62
2019-02-16 12:00:00 12.8 12 Sudeste 34 Sudeste 0 975.2 1.1 65
2019-02-16 11:00:00 11.6 14 Sudeste 34 Sudeste 0 974.9 1.5 69
2019-02-16 10:00:00 11 16 Este 30 Este 0 974.4 0.8 72
2019-02-16 09:00:00 10.1 13 Sudeste 29 Sudeste 0 974.1 0.7 75
2019-02-16 08:00:00 9.7 18 Sudeste 32 Sudeste 0 973.4 0 78
2019-02-16 07:00:00 9.6 15 Sudeste 29 Este 0 973.6 0.4 81
2019-02-16 06:00:00 9.4 16 Este 33 Sudeste 0 973.4 -0.7 86
2019-02-16 05:00:00 9.9 13 Sudeste 35 Sudeste 0 973.4 -1 80
2019-02-16 04:00:00 9.9 12 Sudeste 31 Sudeste 0 973.2 -1.3 77
2019-02-16 03:00:00 9.8 9 Este 25 Sudeste 0 974.1 -0.9 82
2019-02-16 02:00:00 10.2 9 Sudeste 29 Este 0 974.4 -0.1 82
2019-02-16 01:00:00 10.4 12 Sudeste 34 Este 0 974.5 0.4 82
2019-02-16 00:00:00 10.2 10 Sudeste 39 Sur 0 975 0.7 81
2019-02-15 23:00:00 10.1 16 Sur 39 Sur 0 974.5 0 80
2019-02-15 22:00:00 10 12 Sur 33 Sur 0 974.1 -0.2 77
2019-02-15 21:00:00 10.2 9 Sur 47 Sur 0 974.3 0.3 76
2019-02-15 20:00:00 10.6 23 Sur 40 Sudeste 0 974.5 0.2 75
2019-02-15 19:00:00 11 15 Sur 37 Sudeste 0 974.3 -0.2 71
2019-02-15 18:00:00 11.5 20 Sudeste 40 Sudeste 0 974 -1.1 68
2019-02-15 17:00:00 12.4 13 Sur 35 Sudeste 0 974.3 -1.6 65
2019-02-15 16:00:00 13.3 15 Sudeste 44 Sur 0 974.5 -2.6 63
2019-02-15 15:00:00 13 22 Sur 50 Sur 0 975.1 -2.6 63
2019-02-15 14:00:00 13 19 Sudeste 47 Sudeste 0 975.9 -1.7 63
2019-02-15 13:00:00 12.8 26 Sur 53 Sudeste 0 977.1 -0.4 64
2019-02-15 12:00:00 12.4 24 Sur 50 Sudeste 0 977.7 0.2 66
2019-02-15 11:00:00 11.5 23 Sur 47 Sur 0 977.6 0.4 68
2019-02-15 10:00:00 10.9 26 Sudeste 51 Sudeste 0 977.5 0.3 68
2019-02-15 09:00:00 10 26 Sudeste 47 Sur 0 977.5 0.3 77
2019-02-15 08:00:00 9.7 21 Sudeste 44 Sur 0 977.2 -0.1 80
2019-02-15 07:00:00 9.9 22 Sur 41 Sur 0 977.2 -0.5 78
2019-02-15 06:00:00 10 19 Sudeste 39 Sudeste 0 977.2 -0.9 78
2019-02-15 05:00:00 10.1 18 Sudeste 36 Sur 0 977.3 -1.4 76
2019-02-15 04:00:00 10 16 Sudeste 42 Sudeste 0 977.7 -1.2 78
2019-02-15 03:00:00 10.3 16 Sur 40 Sur 0 978.1 -1 75
2019-02-15 02:00:00 10.4 17 Sur 40 Sudeste 0 978.7 -0.5 72
2019-02-15 01:00:00 10 15 Sur 44 Sudeste 0 978.9 -0.2 78
2019-02-15 00:00:00 10.1 17 Sur 47 Sur 0 979.1 0.2 77
2019-02-14 23:00:00 10 15 Sur 51 Sudeste 0 979.2 0.2 78
2019-02-14 22:00:00 10 15 Sur 47 Sur 0 979.1 0.3 74
2019-02-14 21:00:00 10 18 Sur 47 Sur 0 978.9 0.2 67
2019-02-14 20:00:00 10.1 15 Sur 41 Sur 0 979 0.3 66
2019-02-14 19:00:00 10.5 13 Sur 38 Sur 0 978.8 0 64
2019-02-14 18:00:00 11.6 17 Sur 45 Sur 0 978.7 -0.5 59
2019-02-14 17:00:00 12 23 Sur 46 Sur 0 978.7 -1.1 57
2019-02-14 16:00:00 12.5 21 Sur 49 Sur 0 978.8 -1.6 55
2019-02-14 15:00:00 12.9 22 Sur 58 Sudeste 0 979.2 -1.6 56
2019-02-14 14:00:00 12.9 21 Sur 51 Sur 0 979.8 -1.1 56
2019-02-14 13:00:00 12.1 27 Sur 54 Sur 0 980.4 -0.2 63
2019-02-14 12:00:00 11.7 31 Sur 54 Sur 0 980.8 0.5 62
2019-02-14 11:00:00 10.9 31 Sur 58 Sudeste 0 980.9 1.3 65
2019-02-14 10:00:00 10 28 Sudeste 58 Sur 0 980.6 1.1 69
2019-02-14 09:00:00 9.2 28 Sur 54 Sur 0 980.3 1 72
2019-02-14 08:00:00 8.7 24 Sur 46 Sur 0 979.6 0.3 75
2019-02-14 07:00:00 8.9 24 Sur 46 Sudeste 0 979.5 0.2 75
2019-02-14 06:00:00 9.1 27 Sur 51 Sudeste 0 979.3 0.1 76
2019-02-14 05:00:00 9.4 26 Sudeste 51 Sur 0 979.3 -0.2 71
2019-02-14 04:00:00 9.6 27 Sudeste 51 Sur 0 979.3 -0.2 71
2019-02-14 03:00:00 9.6 24 Sudeste 46 Sur 0 979.2 -0.5 75
2019-02-14 02:00:00 9.6 22 Sudeste 45 Sudeste 0 979.5 -0.2 77
2019-02-14 01:00:00 9.8 23 Sudeste 44 Sur 0 979.5 -0.1 73
2019-02-14 00:00:00 10 13 Sur 47 Sur 0 979.7 0.4 72
2019-02-13 23:00:00 9.9 16 Sur 44 Sur 0 979.7 0.6 71
2019-02-13 22:00:00 10.2 13 Sur 37 Sur 0 979.6 0.8 70
2019-02-13 21:00:00 10.3 10 Sudeste 29 Sudeste 0 979.3 0.7 63
2019-02-13 20:00:00 10.6 9 Sudeste 24 Sur 0 979.1 0.2 54
2019-02-13 19:00:00 11.3 9 Sudeste 34 Sur 0 978.8 -0.1 46
2019-02-13 18:00:00 12.3 10 Sur 39 Sudeste 0 978.6 -0.2 53
2019-02-13 17:00:00 12.9 17 Sur 33 Sudeste 0 978.9 -0.5 49
2019-02-13 16:00:00 13.3 18 Sur 36 Sudeste 0 978.9 -1.1 50
2019-02-13 15:00:00 13.7 18 Sudeste 36 Sur 0 978.8 -1.3 49
2019-02-13 14:00:00 13.8 15 Sudeste 39 Sudeste 0 979.4 -0.8 47
2019-02-13 13:00:00 13.5 14 Sudeste 40 Sudeste 0 980 0.1 49
2019-02-13 12:00:00 12.9 16 Sudeste 37 Sudeste 0 980.1 0.4 51
2019-02-13 11:00:00 11.5 15 Sudeste 32 Sudeste 0 980.2 0.8 53
2019-02-13 10:00:00 10.6 11 Sudeste 30 Sudeste 0 979.9 0.6 61
2019-02-13 09:00:00 8.6 14 Este 24 Este 0 979.7 0.4 74
2019-02-13 08:00:00 8.1 13 Este 24 Este 0 979.4 0.1 75
2019-02-13 07:00:00 8.3 11 Este 22 Sudeste 0 979.3 -0.6 76
2019-02-13 06:00:00 8.1 9 Este 27 Este 0 979.3 -1 78
2019-02-13 05:00:00 8.1 9 Este 18 Este 0 979.3 -1.1 78
2019-02-13 04:00:00 8 7 Este 17 Este 0 979.9 -0.9 81
2019-02-13 03:00:00 8.1 11 Este 19 Sudeste 0 980.3 -0.8 84
2019-02-13 02:00:00 8.8 8 Este 20 Sudeste 0 980.4 -1 82
2019-02-13 01:00:00 9.2 6 Este 14 Este 0 980.8 -0.3 81
2019-02-13 00:00:00 8.9 3 Sur 14 Sur 0 981.1 0.2 76
2019-02-12 23:00:00 9.3 0 Calma 19 Sur 0 981.4 0.8 68
2019-02-12 22:00:00 9.9 0 Calma 18 Sudoeste 0 981.1 0.9 65
2019-02-12 21:00:00 10 3 Oeste 31 Sudeste 0 980.9 1.2 69
2019-02-12 20:00:00 10.5 12 Sur 40 Sur 0 980.6 1.2 69
2019-02-12 19:00:00 10.9 18 Sur 45 Sudeste 0 980.2 1 69
2019-02-12 18:00:00 11.6 21 Sudeste 45 Sur 0 979.7 0.2 64
2019-02-12 17:00:00 12.5 25 Sur 47 Sur 0 979.4 -0.4 59
2019-02-12 16:00:00 13.2 27 Sudeste 52 Sudeste 0 979.2 -1 57
2019-02-12 15:00:00 13.2 25 Sudeste 49 Sudeste 0 979.5 -0.8 56
2019-02-12 14:00:00 13.6 23 Sudeste 53 Sudeste 0 979.8 -0.3 54
2019-02-12 13:00:00 13.5 27 Sur 46 Sur 0 980.2 0.1 57
2019-02-12 12:00:00 13.8 23 Sudeste 45 Sur 0 980.3 0.8 57
2019-02-12 11:00:00 12.9 23 Sudeste 45 Sudeste 0 980.1 1.2 65
2019-02-12 10:00:00 11.9 13 Sudeste 34 Sudeste 0 980.1 1.4 77
2019-02-12 09:00:00 10.9 9 Sudeste 29 Sur 0 979.5 1 81
2019-02-12 08:00:00 10.1 5 Sudeste 19 Sudeste 0 978.9 0.7 83
2019-02-12 07:00:00 10.2 8 Sur 23 Sur 0 978.7 0.4 82
2019-02-12 06:00:00 10.2 7 Sudeste 30 Sur 0 978.5 -0.3 82
2019-02-12 05:00:00 7.5 0 Calma 7 Este 0 978.2 -0.5 88
2019-02-12 04:00:00 4.6 0 Calma 5 Sur 0 978.3 -0.6 93
2019-02-12 03:00:00 5.5 0 Calma 3 Noroeste 0 978.8 -0.1 91
2019-02-12 02:00:00 6 0 Calma 0 Calma 0 978.7 0 89
2019-02-12 01:00:00 6.7 0 Calma 12 Sudeste 0 978.9 0.6 89
2019-02-12 00:00:00 7.8 0 Calma -- -- 0 978.9 1 84
2019-02-11 23:00:00 8.7 0 Calma 0 Calma 0 978.7 1 81
2019-02-11 22:00:00 9.8 0 Calma 5 Nordeste 0 978.3 1.4 77
2019-02-11 21:00:00 10.9 0 Calma 10 Noroeste 0 977.9 1.3 71
2019-02-11 20:00:00 12.5 5 Noroeste 10 Noroeste 0 977.7 1.1 65
2019-02-11 19:00:00 13.6 0 Calma 9 Noroeste 0 976.9 0.2 58
2019-02-11 18:00:00 15.4 5 Noroeste 12 Noroeste 0 976.6 -0.4 52
2019-02-11 17:00:00 15.8 3 Noroeste 14 Nordeste 0 976.6 -1 53
2019-02-11 16:00:00 15.5 5 Nordeste 14 Norte 0 976.7 -1.9 54
2019-02-11 15:00:00 15.5 4 Noroeste 12 Oeste 0 977 -2.1 58
2019-02-11 14:00:00 13.7 4 Noroeste 15 Noroeste 0 977.6 -1.2 64
2019-02-11 13:00:00 13.3 5 Nordeste 12 Nordeste 0 978.6 -0.1 72
2019-02-11 12:00:00 11.5 2 Oeste 9 Noroeste 0 979.1 0.7 81
2019-02-11 11:00:00 11.1 0 Calma 6 Noroeste 0 978.8 0.7 84
2019-02-11 10:00:00 10.4 0 Calma 3 Oeste 0 978.7 0.9 88
2019-02-11 09:00:00 9.4 0 Calma 5 Nordeste 0 978.4 0.9 90
2019-02-11 08:00:00 9.1 2 Nordeste 5 Nordeste 0 978.1 0.8 90
2019-02-11 07:00:00 9.1 0 Calma 4 Nordeste 0 977.8 -0.2 88
2019-02-11 06:00:00 10 2 Nordeste 5 Nordeste 0 977.5 -0.5 81
2019-02-11 05:00:00 9.8 0 Calma 4 Nordeste 0 977.3 -0.8 78
2019-02-11 04:00:00 9.8 0 Calma 7 Este 0 978 -0.1 78
2019-02-11 03:00:00 9.9 0 Calma 3 Nordeste 0 978 -0.1 78
2019-02-11 02:00:00 10.2 0 Calma 8 Noroeste 0 978.1 -0.2 78
2019-02-11 01:00:00 9.8 0 Calma 4 Oeste 0 978.1 0 76
2019-02-11 00:00:00 9.7 0 Calma 9 Noroeste 0 978.1 0.1 75
2019-02-10 23:00:00 9.9 3 Noroeste 12 Nordeste 0 978.3 0.6 71
2019-02-10 22:00:00 11 0 Calma 10 Norte 0 978.1 0.7 67
2019-02-10 21:00:00 10.9 0 Calma 10 Norte 0 978 0.9 66
2019-02-10 20:00:00 11.3 0 Calma 10 Norte 0 977.7 0.8 64
2019-02-10 19:00:00 11.4 0 Calma 10 Nordeste 0 977.4 0.2 63
2019-02-10 18:00:00 12 0 Calma 17 Nordeste 0 977.1 -0.1 59
2019-02-10 17:00:00 13.1 4 Norte 20 Norte 0 976.9 -0.7 57
2019-02-10 16:00:00 12.4 5 Norte 18 Nordeste 0 977.2 -0.9 60
2019-02-10 15:00:00 12 4 Norte 17 Noroeste 0 977.2 -1.2 63
2019-02-10 14:00:00 11.7 3 Norte 16 Norte 0 977.6 -0.7 65
2019-02-10 13:00:00 11.7 4 Nordeste 15 Nordeste 0 978.1 0.2 63
2019-02-10 12:00:00 10.8 5 Nordeste 13 Nordeste 0 978.4 1.2 69
2019-02-10 11:00:00 8.5 2 Nordeste 8 Nordeste 0 978.3 1.7 81
2019-02-10 10:00:00 6.2 0 Calma 7 Nordeste 0 977.9 1.8 91
2019-02-10 09:00:00 4.6 0 Calma 6 Nordeste 0 977.2 1.4 93
2019-02-10 08:00:00 3.9 0 Calma 6 Nordeste 0 976.6 1.3 94
2019-02-10 07:00:00 3.1 4 Este 6 Nordeste 0 976.1 1 95
2019-02-10 06:00:00 2.6 0 Calma -- -- 0 975.8 0.5 94
2019-02-10 05:00:00 2.5 0 Calma -- -- 0 975.3 -0.1 93
2019-02-10 04:00:00 3.1 0 Calma -- -- 0 975.1 -0.5 93
2019-02-10 03:00:00 4.5 0 Calma -- -- 0 975.3 0 90
2019-02-10 02:00:00 4.9 0 Calma -- -- 0 975.4 0 89
2019-02-10 01:00:00 5.7 0 Calma 3 Nordeste 0 975.6 0.5 89
2019-02-10 00:00:00 6.5 0 Calma 5 Oeste 0 975.3 0.5 86
2019-02-09 23:00:00 7.6 0 Calma 4 Noroeste 0 975.4 1.1 83
2019-02-09 22:00:00 8.9 0 Calma -- -- 0 975.1 1.4 77
2019-02-09 21:00:00 10.4 0 Calma 2 Oeste 0 974.8 1.3 72
2019-02-09 20:00:00 11.8 3 Noroeste 13 Noroeste 0 974.3 1 65
2019-02-09 19:00:00 13.2 7 Noroeste 12 Noroeste 0 973.7 0.1 63
2019-02-09 18:00:00 15.4 6 Noroeste 15 Noroeste 0 973.5 -0.3 51
2019-02-09 17:00:00 16.3 4 Noroeste 16 Noroeste 0 973.3 -1.1 45
2019-02-09 16:00:00 16.6 5 Noroeste 16 Norte 0 973.6 -1.5 40
2019-02-09 15:00:00 16.1 0 Calma 13 Noroeste 0 973.8 -1.8 41
2019-02-09 14:00:00 15.3 0 Calma 10 Norte 0 974.4 -1.2 47
2019-02-09 13:00:00 13 0 Calma 8 Noroeste 0 975.1 -0.3 59
2019-02-09 12:00:00 10.1 0 Calma 6 Este 0 975.6 0.6 73
2019-02-09 11:00:00 5.2 0 Calma 6 Sudeste 0 975.6 1.3 93
2019-02-09 10:00:00 1.9 2 Noroeste 8 Noroeste 0 975.4 1.5 97
2019-02-09 09:00:00 0 0 Calma 4 Sur 0 975 0.9 97
2019-02-09 08:00:00 0.2 0 Calma 0 Calma 0 974.3 0.3 95
2019-02-09 07:00:00 0.3 0 Calma 5 Norte 0 973.9 -0.2 95
2019-02-09 06:00:00 2.6 0 Calma 0 Calma 0 974.1 -0.4 96
2019-02-09 05:00:00 2.7 0 Calma -- -- 0 974 -0.7 93
2019-02-09 04:00:00 3.6 0 Calma 2 Oeste 0 974.1 -0.6 92
2019-02-09 03:00:00 4.4 0 Calma -- -- 0 974.5 -0.4 90
2019-02-09 02:00:00 4.7 0 Calma 5 Oeste 0 974.7 0 90
2019-02-09 01:00:00 5.7 0 Calma 0 Calma 0 974.7 0.2 87
2019-02-09 00:00:00 6.6 0 Calma 3 Oeste 0 974.9 0.7 85
2019-02-08 23:00:00 7.9 0 Calma 7 Nordeste 0 974.7 0.9 82
2019-02-08 22:00:00 9.5 0 Calma 6 Norte 0 974.5 1.5 75
2019-02-08 21:00:00 11.8 0 Calma 5 Noroeste 0 974.2 1.3 69
2019-02-08 20:00:00 12.2 3 Noroeste 10 Noroeste 0 973.8 1 64
2019-02-08 19:00:00 14.1 4 Noroeste 10 Norte 0 973 -0.1 57
2019-02-08 18:00:00 15.8 3 Noroeste 11 Oeste 0 972.9 -0.5 48
2019-02-08 17:00:00 18.2 2 Sur 10 Sur 0 972.8 -1.1 35
2019-02-08 16:00:00 18 0 Calma 12 Sudoeste 0 973.1 -1.6 34
2019-02-08 15:00:00 17.9 2 Sur 13 Sur 0 973.4 -1.8 35
2019-02-08 14:00:00 16.5 0 Calma 9 Sudoeste 0 973.9 -1.2 42
2019-02-08 13:00:00 14.3 2 Oeste 8 Sudeste 0 974.7 -0.3 52
2019-02-08 12:00:00 11.6 0 Calma 8 Este 0 975.2 0.7 61
2019-02-08 11:00:00 7.9 0 Calma 7 Este 0 975.1 1.2 78
2019-02-08 10:00:00 3.6 0 Calma 9 Nordeste 0 975 1.4 90
2019-02-08 09:00:00 1 0 Calma 6 Sur 0 974.5 0.6 95
2019-02-08 08:00:00 0.3 0 Calma 4 Norte 0 973.9 -0.1 94
2019-02-08 07:00:00 1.1 0 Calma 5 Norte 0 973.6 -0.7 94
2019-02-08 06:00:00 1.9 0 Calma 3 Norte 0 973.9 -0.5 93
2019-02-08 05:00:00 3 0 Calma 4 Noroeste 0 974 -0.6 92
2019-02-08 04:00:00 2.7 0 Calma 3 Norte 0 974.3 -0.5 90
2019-02-08 03:00:00 3.5 0 Calma 4 Oeste 0 974.4 -0.4 88
2019-02-08 02:00:00 5.2 0 Calma 5 Noroeste 0 974.6 -0.1 84
2019-02-08 01:00:00 5.2 0 Calma 6 Noroeste 0 974.8 0.4 83
2019-02-08 00:00:00 6.2 0 Calma 8 Nordeste 0 974.8 0.7 78
2019-02-07 23:00:00 7.3 0 Calma 5 Nordeste 0 974.7 0.6 76
2019-02-07 22:00:00 9.6 0 Calma -- -- 0 974.4 0.8 64
2019-02-07 21:00:00 10.9 0 Calma 12 Noroeste 0 974.1 0.6 57
2019-02-07 20:00:00 12.6 3 Noroeste 9 Norte 0 974.1 0.5 52
2019-02-07 19:00:00 14.3 0 Calma 12 Nordeste 0 973.6 -0.1 45
2019-02-07 18:00:00 16.1 2 Nordeste 15 Nordeste 0 973.5 -0.4 41
2019-02-07 17:00:00 17.1 3 Norte 19 Nordeste 0 973.6 -1 39
2019-02-07 16:00:00 17.3 6 Nordeste 20 Noroeste 0 973.7 -1.7 40
2019-02-07 15:00:00 16.9 3 Norte 19 Noroeste 0 973.9 -2.2 43
2019-02-07 14:00:00 16.2 2 Norte 14 Nordeste 0 974.6 -1.4 48
2019-02-07 13:00:00 14.2 2 Noroeste 12 Nordeste 0 975.4 -0.3 55
2019-02-07 12:00:00 11.9 2 Este 7 Este 0 976.1 1.1 61
2019-02-07 11:00:00 7.3 0 Calma 6 Sudeste 0 976 1.3 78
2019-02-07 10:00:00 3.7 0 Calma 0 Calma 0 975.7 1.1 89
2019-02-07 09:00:00 2.1 0 Calma 5 Noroeste 0 975 0.1 93
2019-02-07 08:00:00 2.6 2 Noroeste 6 Noroeste 0 974.7 -0.3 91
2019-02-07 07:00:00 2.4 3 Noroeste 7 Noroeste 0 974.6 -0.7 92
2019-02-07 06:00:00 2.1 0 Calma 2 Nordeste 0 974.9 -0.6 90
2019-02-07 05:00:00 3.4 0 Calma 3 Nordeste 0 975 -0.9 88
2019-02-07 04:00:00 3.4 0 Calma -- -- 0 975.3 -0.7 88
2019-02-07 03:00:00 4.2 0 Calma 4 Este 0 975.5 -0.6 85
2019-02-07 02:00:00 4.9 0 Calma 6 Noroeste 0 975.9 0.1 80
2019-02-07 01:00:00 5.7 0 Calma 4 Nordeste 0 976 0.3 76
2019-02-07 00:00:00 7 0 Calma 4 Nordeste 0 976.1 0.7 70
2019-02-06 23:00:00 8.1 0 Calma 5 Nordeste 0 975.8 0.5 69
2019-02-06 22:00:00 9.2 0 Calma 3 Este 0 975.7 0.7 67
2019-02-06 21:00:00 10.5 0 Calma 7 Noroeste 0 975.4 0.9 66
2019-02-06 20:00:00 12.9 0 Calma 5 Noroeste 0 975.3 0.8 57
2019-02-06 19:00:00 14.9 3 Noroeste 8 Noroeste 0 975 0.2 44
2019-02-06 18:00:00 17.6 0 Calma 12 Sudoeste 0 974.5 -0.7 25
2019-02-06 17:00:00 19 5 Sur 15 Sur 0 974.5 -1.5 23
2019-02-06 16:00:00 19.2 6 Sudeste 20 Sudeste 0 974.8 -2 23
2019-02-06 15:00:00 19.2 8 Sudeste 21 Sur 0 975.2 -2.4 24
2019-02-06 14:00:00 18.5 3 Sur 12 Sudeste 0 976 -1.5 27
2019-02-06 13:00:00 15.8 0 Calma 6 Oeste 0 976.8 -0.5 35
2019-02-06 12:00:00 13.2 0 Calma 6 Sudeste 0 977.6 0.3 58
2019-02-06 11:00:00 8.3 0 Calma 5 Sudeste 0 977.5 0.6 72
2019-02-06 10:00:00 4 0 Calma 6 Este 0 977.3 0.4 85
2019-02-06 09:00:00 2.3 0 Calma 7 Noroeste 0 977.3 0.4 91
2019-02-06 08:00:00 0.5 0 Calma 3 Oeste 0 976.9 0.1 93
2019-02-06 07:00:00 1.5 0 Calma 6 Nordeste 0 976.9 -0.4 91
2019-02-06 06:00:00 1.4 0 Calma 3 Norte 0 976.9 -0.5 90
2019-02-06 05:00:00 2.3 0 Calma 3 Sudeste 0 976.8 -0.9 88
2019-02-06 04:00:00 2.9 0 Calma 4 Nordeste 0 977.3 -0.6 88
2019-02-06 03:00:00 3.7 0 Calma 4 Sudeste 0 977.4 -0.8 85
2019-02-06 02:00:00 4.6 0 Calma 4 Norte 0 977.7 -0.5 81
2019-02-06 01:00:00 5.7 0 Calma 6 Norte 0 977.9 -0.3 76
2019-02-06 00:00:00 7 0 Calma 2 Sudeste 0 978.2 0.3 70
2019-02-05 23:00:00 7.9 0 Calma 6 Noroeste 0 978.2 0.6 67
2019-02-05 22:00:00 9.5 3 Noroeste 5 Oeste 0 978.2 0.8 57
2019-02-05 21:00:00 10.7 0 Calma 11 Noroeste 0 977.9 0.6 52
2019-02-05 20:00:00 12.2 5 Noroeste 12 Noroeste 0 977.6 0.1 46
2019-02-05 19:00:00 14.1 2 Noroeste 11 Noroeste 0 977.4 0 43
2019-02-05 18:00:00 16.6 3 Noroeste 15 Noroeste 0 977.3 -0.5 35
2019-02-05 17:00:00 17.8 4 Noroeste 17 Noroeste 0 977.5 -0.9 31
2019-02-05 16:00:00 17.7 3 Nordeste 15 Nordeste 0 977.4 -1.7 31
2019-02-05 15:00:00 17.2 3 Nordeste 14 Sudoeste 0 977.8 -1.9 30
2019-02-05 14:00:00 15.5 0 Calma 9 Oeste 0 978.4 -1.3 36
2019-02-05 13:00:00 13.4 0 Calma 6 Este 0 979.1 -0.4 50
2019-02-05 12:00:00 10.4 0 Calma 7 Sur 0 979.7 0.6 57
2019-02-05 11:00:00 5.6 0 Calma 0 Calma 0 979.7 1.3 79
2019-02-05 10:00:00 2.3 0 Calma 0 Calma 0 979.5 1.3 89
2019-02-05 09:00:00 0 0 Calma 4 Nordeste 0 979.1 1 91
2019-02-05 08:00:00 -0.3 0 Calma 6 Oeste 0 978.4 0.3 92
2019-02-05 07:00:00 -0.6 0 Calma 5 Este 0 978.2 -0.1 93
2019-02-05 06:00:00 0.4 0 Calma -- -- 0 978.1 -0.4 91
2019-02-05 05:00:00 0.5 0 Calma 3 Este 0 978.1 -0.4 90
2019-02-05 04:00:00 1.5 0 Calma 4 Nordeste 0 978.3 -0.4 88
2019-02-05 03:00:00 1.8 0 Calma 2 Noroeste 0 978.5 -0.3 87
2019-02-05 02:00:00 2 0 Calma 6 Nordeste 0 978.5 -0.3 86
2019-02-05 01:00:00 2.9 0 Calma 5 Nordeste 0 978.7 -0.4 82
2019-02-05 00:00:00 3.7 0 Calma 5 Noroeste 0 978.8 0 81
2019-02-04 23:00:00 5.4 0 Calma 5 Noroeste 0 978.8 0.5 72
2019-02-04 22:00:00 6.3 0 Calma 5 Oeste 0 979.1 1.5 66
2019-02-04 21:00:00 7.8 0 Calma 12 Noroeste 0 978.8 1.3 59
2019-02-04 20:00:00 9.4 10 Noroeste 13 Noroeste 0 978.3 0.8 53
2019-02-04 19:00:00 11.4 5 Noroeste 12 Noroeste 0 977.6 -0.1 43
2019-02-04 18:00:00 13.3 0 Calma 13 Noroeste 0 977.5 -0.5 37
2019-02-04 17:00:00 14.4 2 Noroeste 12 Oeste 0 977.5 -1 33
2019-02-04 16:00:00 14.1 4 Oeste 13 Noroeste 0 977.7 -1.9 33
2019-02-04 15:00:00 13.4 4 Oeste 10 Sudoeste 0 978 -2.2 34
2019-02-04 14:00:00 12 0 Calma 10 Sur 0 978.5 -1.4 39
2019-02-04 13:00:00 9.5 2 Sudeste 12 Este 0 979.6 0 43
2019-02-04 12:00:00 7.6 3 Este 9 Este 0 980.2 0.9 46
2019-02-04 11:00:00 2.9 0 Calma 11 Este 0 979.9 0.8 77
2019-02-04 10:00:00 1.2 3 Oeste 7 Oeste 0 979.6 0.5 85
2019-02-04 09:00:00 -1.4 0 Calma 7 Nordeste 0 979.3 0 89
2019-02-04 08:00:00 -1.8 0 Calma 4 Norte 0 979.1 -0.1 89
2019-02-04 07:00:00 -1.7 0 Calma 6 Noroeste 0 979.1 -0.5 90
2019-02-04 06:00:00 -1.5 0 Calma -- -- 0 979.3 -0.4 89
2019-02-04 05:00:00 -1.3 0 Calma 3 Nordeste 0 979.2 -0.9 87
2019-02-04 04:00:00 0.2 4 Nordeste 8 Nordeste 0 979.6 -0.5 83
2019-02-04 03:00:00 -0.1 3 Noroeste 13 Noroeste 0 979.7 -0.1 86
2019-02-04 02:00:00 1.4 0 Calma 6 Norte 0 980.1 0.9 84
2019-02-04 01:00:00 2.8 0 Calma 6 Oeste 0 980.1 1.6 77
2019-02-04 00:00:00 3.5 0 Calma 4 Noroeste 0 979.8 2.2 71
2019-02-03 23:00:00 3.3 0 Calma 8 Noroeste 0 979.2 2 72
2019-02-03 22:00:00 4.7 3 Noroeste 17 Noroeste 0 978.5 2 66
2019-02-03 21:00:00 6.1 11 Noroeste 21 Noroeste 0 977.6 1.5 60
2019-02-03 20:00:00 6.8 7 Noroeste 16 Noroeste 0 977.2 0.9 49
2019-02-03 19:00:00 8 2 Norte 14 Nordeste 0 976.5 0.7 43
2019-02-03 18:00:00 9.1 8 Nordeste 23 Nordeste 0 976.1 0 41
2019-02-03 17:00:00 10 5 Norte 30 Norte 0 976.3 0 40
2019-02-03 16:00:00 10.3 9 Noroeste 28 Noroeste 0 975.8 -0.7 43
2019-02-03 15:00:00 9.2 10 Noroeste 24 Noroeste 0 976.1 -0.9 46
2019-02-03 14:00:00 8.5 10 Noroeste 24 Noroeste 0 976.3 -0.5 48
2019-02-03 13:00:00 7.6 10 Nordeste 21 Nordeste 0 976.5 -0.2 47
2019-02-03 12:00:00 7.1 3 Norte 17 Noroeste 0 977 1.1 57
2019-02-03 11:00:00 4.6 2 Nordeste 13 Nordeste 0 976.8 1.9 67
2019-02-03 10:00:00 2.8 2 Nordeste 10 Nordeste 0 976.7 2.4 75
2019-02-03 09:00:00 0.5 0 Calma 6 Nordeste 0 975.9 1.9 79
2019-02-03 08:00:00 1.3 0 Calma 11 Norte 0 974.9 0.9 75
2019-02-03 07:00:00 1.6 6 Nordeste 11 Noroeste 0 974.3 0.4 70
2019-02-03 06:00:00 2.3 4 Noroeste 13 Noroeste 0 974 0.2 66
2019-02-03 05:00:00 2.6 6 Noroeste 15 Noroeste 0 974 0.7 66
2019-02-03 04:00:00 2.8 6 Noroeste 13 Noroeste 0 973.9 0.8 66
2019-02-03 03:00:00 2.5 3 Noroeste 10 Noroeste 0 973.8 1.5 69
2019-02-03 02:00:00 2.5 0 Calma 9 Noroeste 0 973.3 1.2 69
2019-02-03 01:00:00 3.4 2 Noroeste 12 Noroeste 0 973.1 1.5 66
2019-02-03 00:00:00 3.7 2 Noroeste 10 Noroeste 0 972.3 1.3 66
2019-02-02 23:00:00 4.2 6 Noroeste 14 Noroeste 0 972.1 2 65
2019-02-02 22:00:00 4.8 3 Noroeste 13 Noroeste 0 971.6 2.4 64
2019-02-02 21:00:00 5.5 3 Noroeste 12 Noroeste 0 971 2.8 62
2019-02-02 20:00:00 6.5 6 Noroeste 23 Noroeste 0 970.1 2.6 58
2019-02-02 19:00:00 7.7 9 Noroeste 30 Noroeste 0 969.2 2.3 53
2019-02-02 18:00:00 8.8 15 Noroeste 35 Noroeste 0 968.2 1.6 48
2019-02-02 17:00:00 9.8 18 Noroeste 45 Oeste 0 967.5 0.7 46
2019-02-02 16:00:00 10.2 17 Oeste 44 Oeste 0 966.9 0.3 47
2019-02-02 15:00:00 9.3 21 Noroeste 43 Oeste 0 966.6 0.4 48
2019-02-02 14:00:00 8.5 17 Noroeste 36 Noroeste 0 966.8 1.6 53
2019-02-02 13:00:00 7.7 19 Noroeste 36 Noroeste 0 966.6 2.5 57
2019-02-02 12:00:00 7.4 18 Noroeste 37 Noroeste 0 966.2 3.2 63
2019-02-02 11:00:00 6.8 17 Oeste 39 Oeste 0 965.2 3.4 69
2019-02-02 10:00:00 6.4 15 Oeste 40 Oeste 0 964.1 2.7 76
2019-02-02 09:00:00 6.2 14 Oeste 33 Oeste 0 963 1.7 78
2019-02-02 08:00:00 6.3 10 Oeste 30 Oeste 0 961.8 0.8 77
2019-02-02 07:00:00 6.2 13 Oeste 30 Oeste 0 961.4 0.7 78
2019-02-02 06:00:00 6.3 11 Oeste 32 Sudoeste 0 961.3 0.8 80
2019-02-02 05:00:00 6.4 14 Oeste 36 Oeste 0 961 0.5 79
2019-02-02 04:00:00 6.4 15 Oeste 41 Oeste 0 960.7 0.2 78
2019-02-02 03:00:00 6 13 Oeste 35 Oeste 0 960.5 0.9 79
2019-02-02 02:00:00 5.9 11 Oeste 30 Oeste 0 960.5 1.7 78
2019-02-02 01:00:00 5.8 13 Oeste 29 Noroeste 0 960.5 2.2 77
2019-02-02 00:00:00 5.9 11 Oeste 34 Oeste 0 959.6 2.3 76
2019-02-01 23:00:00 6.1 20 Noroeste 49 Oeste 0.1 958.8 2.3 78
2019-02-01 22:00:00 6.8 13 Oeste 35 Oeste 0.4 958.3 2.8 83
2019-02-01 21:00:00 6.9 10 Oeste 35 Noroeste 2.1 957.3 2.7 86
2019-02-01 20:00:00 6.9 11 Oeste 44 Oeste 0.9 956.5 1.7 87
2019-02-01 19:00:00 8 9 Oeste 47 Sudoeste 1.1 955.5 0.7 86
2019-02-01 18:00:00 9.5 13 Oeste 34 Oeste 0 954.6 0.1 71
2019-02-01 17:00:00 9.1 9 Sudoeste 39 Oeste 0.3 954.8 -0.2 74
2019-02-01 16:00:00 8.5 10 Oeste 59 Oeste 0.5 954.8 -0.8 78
2019-02-01 15:00:00 11.7 17 Oeste 42 Sudoeste 0 954.5 -1.1 54
2019-02-01 14:00:00 11.8 19 Oeste 44 Oeste 0 955 -0.1 59
2019-02-01 13:00:00 11.5 18 Oeste 50 Oeste 0 955.6 0.4 59
2019-02-01 12:00:00 10.9 18 Oeste 43 Oeste 0 955.6 1.3 69
2019-02-01 11:00:00 9.9 13 Oeste 35 Oeste 0.1 955.1 2.8 81
2019-02-01 10:00:00 9 8 Oeste 47 Noroeste 1.1 955.2 2.8 90
2019-02-01 09:00:00 9.9 22 Oeste 50 Oeste 2.6 954.3 1.3 88
2019-02-01 08:00:00 11.2 8 Sudoeste 41 Oeste 1.8 952.3 -1.6 90
2019-02-01 07:00:00 11.7 14 Oeste 41 Sudoeste 1.2 952.4 -2.5 86
2019-02-01 06:00:00 11.5 5 Sudoeste 22 Sudoeste 3.6 953 -3.2 93
2019-02-01 05:00:00 11.5 9 Sudoeste 30 Sudoeste 2.2 953.9 -3.5 89
2019-02-01 04:00:00 11.9 8 Sudoeste 24 Sur 0.6 954.9 -3.2 84
2019-02-01 03:00:00 11.9 6 Sudoeste 20 Sudoeste 0 956.2 -3.2 82
2019-02-01 02:00:00 11.1 3 Sudoeste 20 Sudoeste 1 957.4 -2.3 87
2019-02-01 01:00:00 11.6 0 Calma 6 Sudoeste 0 958.1 -2.3 80
2019-02-01 00:00:00 11.6 3 Sudoeste 25 Sudoeste 0.1 959.4 -1.2 80
2019-01-31 23:00:00 12.1 5 Sudoeste 20 Sudoeste 0 959.7 -1.6 72
2019-01-31 22:00:00 12.3 6 Sudoeste 22 Sudoeste 0 960.4 -0.4 70
2019-01-31 21:00:00 11.9 5 Sudoeste 21 Oeste 0 960.6 -0.7 71
2019-01-31 20:00:00 11.8 6 Sudoeste 23 Sudoeste 0 961.3 -0.2 70
2019-01-31 19:00:00 12.3 5 Sudoeste 21 Sudoeste 0 960.8 -0.6 66
2019-01-31 18:00:00 12.9 9 Oeste 31 Sudoeste 0 961.3 -0.6 63
2019-01-31 17:00:00 13.2 9 Oeste 39 Oeste 0 961.5 -1 66
2019-01-31 16:00:00 13.8 12 Oeste 35 Oeste 0 961.4 -2.2 66
2019-01-31 15:00:00 12.9 13 Oeste 35 Sudoeste 0.1 961.9 -2.5 80
2019-01-31 14:00:00 13.5 9 Oeste 29 Oeste 0 962.5 -1.5 70
2019-01-31 13:00:00 13 10 Oeste 26 Oeste 0 963.6 0.1 77
2019-01-31 12:00:00 12.6 13 Oeste 38 Oeste 0 964.4 1.4 75
2019-01-31 11:00:00 11.7 13 Oeste 30 Oeste 0 964 1.3 80
2019-01-31 10:00:00 11.2 12 Oeste 30 Oeste 0.1 963.5 0.8 86
2019-01-31 09:00:00 10.7 7 Oeste 18 Oeste 0 963 0.2 92
2019-01-31 08:00:00 10.6 7 Oeste 17 Oeste 0 962.7 -0.6 93
2019-01-31 07:00:00 10.2 2 Oeste 18 Oeste 0 962.7 -1.3 93
2019-01-31 06:00:00 10.1 6 Oeste 17 Sudoeste 0.1 962.8 -1.3 93
2019-01-31 05:00:00 9.9 6 Oeste 19 Oeste 0.2 963.3 -1.2 93
2019-01-31 04:00:00 9.8 2 Oeste 31 Oeste 0.5 964 -1.1 92
2019-01-31 03:00:00 10 8 Oeste 26 Oeste 0.9 964.1 -1.4 93
2019-01-31 02:00:00 10.1 4 Oeste 12 Oeste 0.1 964.5 -1.2 92
2019-01-31 01:00:00 9.8 0 Calma -- -- 0.3 965.1 -0.9 90
2019-01-31 00:00:00 10.1 0 Calma 8 Sudoeste 0 965.5 -0.9 88
2019-01-30 23:00:00 9.5 0 Calma 4 Sur 0 965.7 -1 88
2019-01-30 22:00:00 8.8 3 Nordeste 8 Nordeste 0 966 -0.8 87
2019-01-30 21:00:00 8.6 2 Nordeste 5 Nordeste 0.3 966.4 -0.4 87
2019-01-30 20:00:00 9.5 0 Calma 11 Noroeste 0 966.7 -0.1 74
2019-01-30 19:00:00 9.9 0 Calma 15 Oeste 0 966.8 0.3 68
2019-01-30 18:00:00 10.2 8 Oeste 24 Oeste 0 966.8 -0.1 66
2019-01-30 17:00:00 11.6 11 Oeste 28 Oeste 0 966.8 -0.6 59
2019-01-30 16:00:00 12.6 12 Oeste 26 Oeste 0 966.5 -1.8 56
2019-01-30 15:00:00 12.5 14 Oeste 31 Oeste 0 966.9 -1.8 55
2019-01-30 14:00:00 12.1 13 Noroeste 29 Noroeste 0 967.4 -1.2 58
2019-01-30 13:00:00 10.8 13 Noroeste 26 Norte 0 968.3 -0.3 63
2019-01-30 12:00:00 10.4 12 Noroeste 27 Noroeste 0 968.7 0.8 69
2019-01-30 11:00:00 9.8 12 Noroeste 31 Norte 0 968.6 0.8 75
2019-01-30 10:00:00 9.5 14 Noroeste 28 Noroeste 0 968.6 1.1 83
2019-01-30 09:00:00 9.5 10 Noroeste 25 Noroeste 0 967.9 0.5 86
2019-01-30 08:00:00 9.6 9 Oeste 30 Oeste 0.1 967.8 0.4 86
2019-01-30 07:00:00 9.7 5 Oeste 19 Noroeste 0 967.5 -0.3 87
2019-01-30 06:00:00 9.5 9 Oeste 23 Noroeste 0 967.4 -0.7 87
2019-01-30 05:00:00 9.5 11 Oeste 25 Oeste 0 967.4 -1.1 86
2019-01-30 04:00:00 9.2 9 Oeste 28 Oeste 0 967.8 -1.5 85
2019-01-30 03:00:00 9.2 12 Oeste 35 Oeste 0 968.1 -1.1 83
2019-01-30 02:00:00 9.3 10 Oeste 27 Oeste 0 968.5 -0.9 80
2019-01-30 01:00:00 9.7 9 Oeste 23 Noroeste 0 969.3 -0.3 78
2019-01-30 00:00:00 10.2 11 Oeste 30 Oeste 0 969.2 -0.5 76
2019-01-29 23:00:00 10.3 13 Oeste 33 Oeste 0 969.4 -0.2 78
2019-01-29 22:00:00 10.4 10 Oeste 29 Oeste 0 969.6 0.3 77
2019-01-29 21:00:00 10.3 6 Oeste 23 Oeste 0 969.7 0.1 76
2019-01-29 20:00:00 10.7 9 Oeste 32 Oeste 0 969.6 -0.2 76
2019-01-29 19:00:00 10.8 10 Oeste 26 Oeste 0 969.3 -0.6 74
2019-01-29 18:00:00 11.1 7 Oeste 25 Oeste 0 969.6 -1 73
2019-01-29 17:00:00 10.6 10 Oeste 24 Oeste 0 969.8 -1.1 72
2019-01-29 16:00:00 10.5 10 Oeste 28 Oeste 0 969.9 -2.2 71
2019-01-29 15:00:00 11.1 13 Oeste 34 Noroeste 0 970.6 -1.8 65
2019-01-29 14:00:00 11.2 13 Oeste 32 Oeste 0 970.9 -1.9 65
2019-01-29 13:00:00 10.9 12 Noroeste 28 Oeste 0 972.1 -0.6 66
2019-01-29 12:00:00 10.8 13 Oeste 25 Oeste 0 972.4 0 68
2019-01-29 11:00:00 9.1 10 Noroeste 20 Noroeste 0 972.8 1 79
2019-01-29 10:00:00 8.3 6 Noroeste 19 Oeste 0 972.7 1.2 87
2019-01-29 09:00:00 8 4 Noroeste 17 Noroeste 0 972.4 0.6 87
2019-01-29 08:00:00 7.7 5 Noroeste 13 Noroeste 0 971.8 -0.1 88
2019-01-29 07:00:00 7.9 0 Calma 13 Oeste 0 971.5 -0.5 87
2019-01-29 06:00:00 8.1 0 Calma 7 Noroeste 0 971.8 -0.3 86
2019-01-29 05:00:00 8.1 0 Calma 5 Noroeste 0 971.9 -0.6 86
2019-01-29 04:00:00 7.8 0 Calma 6 Oeste 0 972 -0.4 84
2019-01-29 03:00:00 8.3 0 Calma 4 Sudoeste 0 972.1 -0.2 83
2019-01-29 02:00:00 8.2 0 Calma 3 Norte 0 972.5 0.5 82
2019-01-29 01:00:00 8.2 0 Calma 13 Noroeste 0 972.4 0.4 81
2019-01-29 00:00:00 8.5 3 Oeste 18 Noroeste 0 972.3 0.2 76
2019-01-28 23:00:00 9.1 9 Oeste 21 Noroeste 0 972 -0.2 72
2019-01-28 22:00:00 9.3 6 Noroeste 25 Noroeste 0 972 0.1 70
2019-01-28 21:00:00 10 9 Noroeste 25 Noroeste 0 972.1 0.6 66
2019-01-28 20:00:00 10.3 10 Oeste 30 Noroeste 0 972.2 0.5 69
2019-01-28 19:00:00 10.2 9 Oeste 28 Noroeste 0 971.9 0.2 64
2019-01-28 18:00:00 10.9 13 Oeste 33 Oeste 0 971.5 -0.4 58
2019-01-28 17:00:00 11.3 12 Oeste 32 Noroeste 0 971.7 -0.8 54
2019-01-28 16:00:00 11.9 16 Noroeste 32 Noroeste 0 971.7 -1.7 53
2019-01-28 15:00:00 11.8 13 Noroeste 29 Oeste 0 971.9 -2 51
2019-01-28 14:00:00 10.9 10 Noroeste 24 Oeste 0 972.5 -1.1 53
2019-01-28 13:00:00 9.5 10 Noroeste 22 Noroeste 0 973.4 -0.3 55
2019-01-28 12:00:00 8.4 7 Noroeste 19 Noroeste 0 973.9 0.4 59
2019-01-28 11:00:00 7 3 Noroeste 14 Noroeste 0 973.6 0.5 70
2019-01-28 10:00:00 4.5 4 Nordeste 8 Nordeste 0 973.7 0.9 80
2019-01-28 09:00:00 3.2 4 Nordeste 12 Noroeste 0 973.5 1.4 83
2019-01-28 08:00:00 3.5 0 Calma 3 Norte 0 973.1 1 82
2019-01-28 07:00:00 4.4 0 Calma 10 Noroeste 0 972.8 0.2 77
2019-01-28 06:00:00 4 3 Nordeste 10 Noroeste 0 972.1 -0.2 81
2019-01-28 05:00:00 4.8 0 Calma 13 Noroeste 0 972.1 -0.3 77
2019-01-28 04:00:00 5 0 Calma 15 Oeste 0 972.6 0.3 76
2019-01-28 03:00:00 4.6 0 Calma 3 Sudeste 0 972.3 0.5 76
2019-01-28 02:00:00 5.3 0 Calma 4 Sudoeste 0 972.4 0.7 72
2019-01-28 01:00:00 5 0 Calma 0 Calma 0 972.3 0.9 71
2019-01-28 00:00:00 6.2 0 Calma 13 Noroeste 0 971.8 1.4 66
2019-01-27 23:00:00 7.1 4 Noroeste 15 Noroeste 0 971.7 1.4 64
2019-01-27 22:00:00 8 4 Noroeste 14 Noroeste 0 971.4 1.2 62
2019-01-27 21:00:00 8.8 4 Norte 13 Noroeste 0 970.4 0.6 62
2019-01-27 20:00:00 9.8 6 Noroeste 18 Noroeste 0 970.3 0.7 61
2019-01-27 19:00:00 10.6 9 Noroeste 27 Noroeste 0 970.2 1 60
2019-01-27 18:00:00 11.1 11 Noroeste 28 Noroeste 0 969.8 0.7 60
2019-01-27 17:00:00 11.6 14 Noroeste 33 Noroeste 0 969.6 0.4 54
2019-01-27 16:00:00 11.4 17 Noroeste 32 Noroeste 0 969.2 -0.2 56
2019-01-27 15:00:00 12.4 11 Noroeste 32 Noroeste 0 969.1 -1.1 52
2019-01-27 14:00:00 12.5 16 Noroeste 32 Noroeste 0 969.2 -0.9 51
2019-01-27 13:00:00 12.7 14 Oeste 33 Oeste 0 969.4 0.2 51
2019-01-27 12:00:00 12 3 Noroeste 16 Noroeste 0 970.2 1 71
2019-01-27 11:00:00 9.3 2 Nordeste 12 Nordeste 0 970.1 1 85
2019-01-27 10:00:00 6 4 Este 11 Nordeste 0 969.2 0 95
2019-01-27 09:00:00 5.7 5 Nordeste 10 Norte 0 969.2 -0.1 95
2019-01-27 08:00:00 5.6 0 Calma 10 Noroeste 0 969.1 -0.4 96
2019-01-27 07:00:00 5.4 0 Calma 10 Nordeste 0 969.2 -0.7 96
2019-01-27 06:00:00 4.7 5 Nordeste 10 Nordeste 0 969.3 -0.6 96
2019-01-27 05:00:00 3 2 Nordeste 5 Nordeste 0 969.5 -0.8 96
2019-01-27 04:00:00 3.5 0 Calma 3 Nordeste 0 969.9 -0.6 90
2019-01-27 03:00:00 4.2 3 Nordeste 6 Nordeste 0 969.9 -0.8 90
2019-01-27 02:00:00 4.8 0 Calma 6 Noroeste 0 970.3 -0.4 88
2019-01-27 01:00:00 5.1 0 Calma 5 Nordeste 0 970.5 -0.2 86
2019-01-27 00:00:00 6.6 0 Calma 5 Nordeste 0 970.7 0 81
2019-01-26 23:00:00 7.7 0 Calma 7 Nordeste 0 970.7 0.2 77
2019-01-26 22:00:00 8.9 0 Calma 5 Oeste 0 970.7 0.9 72
2019-01-26 21:00:00 10.2 0 Calma 2 Sudoeste 0 970.7 0.8 66
2019-01-26 20:00:00 11.9 0 Calma 16 Noroeste 0 970.5 0.7 59
2019-01-26 19:00:00 13.9 7 Noroeste 12 Noroeste 0 969.8 -0.1 52
2019-01-26 18:00:00 16.8 6 Noroeste 13 Noroeste 0 969.9 -0.3 45
2019-01-26 17:00:00 17.9 3 Oeste 13 Oeste 0 969.8 -1.2 39
2019-01-26 16:00:00 18.1 4 Oeste 14 Sudoeste 0 969.9 -1.9 37
2019-01-26 15:00:00 18.1 3 Sudeste 12 Sudoeste 0 970.2 -2.1 38
2019-01-26 14:00:00 17.7 5 Sudoeste 17 Sudoeste 0 971 -1.3 41
2019-01-26 13:00:00 15 0 Calma 8 Este 0 971.8 0.2 53
2019-01-26 12:00:00 10.7 0 Calma 7 Este 0 972.3 0.9 65
2019-01-26 11:00:00 7.3 0 Calma 4 Este 0 972.3 1.6 78
2019-01-26 10:00:00 3 0 Calma 6 Sudeste 0 971.6 1.4 90
2019-01-26 09:00:00 1.3 0 Calma 5 Este 0 971.4 1.4 93
2019-01-26 08:00:00 1.3 0 Calma 3 Nordeste 0 970.7 0.9 93
2019-01-26 07:00:00 2.1 0 Calma 0 Calma 0 970.2 0.1 93
2019-01-26 06:00:00 2.7 0 Calma 3 Oeste 0 970 0 90
2019-01-26 05:00:00 4 0 Calma 4 Noroeste 0 969.8 -0.6 87
2019-01-26 04:00:00 4.1 0 Calma 4 Nordeste 0 970.1 -0.5 85
2019-01-26 03:00:00 5.4 2 Noroeste 9 Nordeste 0 970 -0.3 83
2019-01-26 02:00:00 5.7 0 Calma 4 Este 0 970.4 0.1 82
2019-01-26 01:00:00 6.8 0 Calma 2 Noroeste 0 970.6 0.4 77
2019-01-26 00:00:00 8 0 Calma 13 Noroeste 0 970.3 0.5 72
2019-01-25 23:00:00 8.6 3 Noroeste 11 Noroeste 0 970.3 1 67
2019-01-25 22:00:00 11.1 3 Noroeste 11 Noroeste 0 970.2 1.3 59
2019-01-25 21:00:00 11.2 6 Noroeste 14 Noroeste 0 969.8 1.2 59
2019-01-25 20:00:00 12.5 0 Calma 19 Norte 0 969.3 0.8 48
2019-01-25 19:00:00 14 6 Norte 19 Noroeste 0 968.9 0.4 47
2019-01-25 18:00:00 15.7 4 Norte 20 Noroeste 0 968.6 0 43
2019-01-25 17:00:00 16.8 9 Noroeste 23 Noroeste 0 968.5 -0.4 46
2019-01-25 16:00:00 17.1 3 Nordeste 22 Nordeste 0 968.5 -1.1 45
2019-01-25 15:00:00 17 11 Nordeste 20 Nordeste 0 968.6 -1.6 44
2019-01-25 14:00:00 15.3 8 Nordeste 16 Nordeste 0 968.9 -0.9 55
2019-01-25 13:00:00 12.8 6 Este 12 Este 0 969.6 0.1 70
2019-01-25 12:00:00 10.3 0 Calma 4 Sudeste 0 970.2 1.2 84
2019-01-25 11:00:00 5.3 0 Calma 8 Este 0 969.8 1.5 96
2019-01-25 10:00:00 3.5 0 Calma 4 Nordeste 0 969.5 1.8 96
2019-01-25 09:00:00 2 2 Nordeste 5 Este 0 969 1.4 96
2019-01-25 08:00:00 2 0 Calma 3 Oeste 0 968.3 0.8 95
2019-01-25 07:00:00 2.6 0 Calma 8 Nordeste 0 967.7 0.1 95
2019-01-25 06:00:00 4 3 Nordeste 6 Nordeste 0 967.6 -0.2 95
2019-01-25 05:00:00 4 0 Calma 4 Este 0 967.5 -0.2 94
2019-01-25 04:00:00 4.8 0 Calma -- -- 0 967.6 0 93
2019-01-25 03:00:00 5.8 0 Calma 0 Calma 0 967.8 0.3 93
2019-01-25 02:00:00 5.7 0 Calma 6 Oeste 0 967.7 0.4 93
2019-01-25 01:00:00 5.1 0 Calma 7 Nordeste 0 967.6 0.9 90
2019-01-25 00:00:00 7.1 3 Nordeste 7 Nordeste 0 967.5 0.9 89
2019-01-24 23:00:00 6.7 0 Calma 8 Nordeste 0 967.3 1.3 89
2019-01-24 22:00:00 8.3 0 Calma 11 Noroeste 0 966.7 1 82
2019-01-24 21:00:00 9.8 0 Calma 8 Noroeste 0 966.6 1.5 75
2019-01-24 20:00:00 11.5 0 Calma 9 Nordeste 0 966 1.3 69
2019-01-24 19:00:00 11.7 0 Calma 10 Norte 0 965.7 1 66
2019-01-24 18:00:00 12.7 3 Nordeste 21 Noroeste 0 965.1 0.7 63
2019-01-24 17:00:00 13.3 4 Norte 21 Noroeste 0 964.7 -0.3 61
2019-01-24 16:00:00 13.5 6 Noroeste 22 Noroeste 0 964.7 -0.5 63
2019-01-24 15:00:00 13 5 Noroeste 20 Oeste 0 964.4 -1.1 64
2019-01-24 14:00:00 12.7 8 Noroeste 21 Noroeste 0 965 -0.4 68
2019-01-24 13:00:00 11.8 7 Oeste 18 Oeste 0 965.2 0.8 72
2019-01-24 12:00:00 10.7 5 Oeste 15 Oeste 0 965.5 1.3 79
2019-01-24 11:00:00 10.2 3 Oeste 17 Noroeste 0 965.4 1.5 82
2019-01-24 10:00:00 9.8 2 Oeste 13 Oeste 0 964.4 0.6 84
2019-01-24 09:00:00 9.7 4 Oeste 16 Oeste 0 964.2 0.7 83
2019-01-24 08:00:00 9.9 5 Oeste 15 Oeste 0 963.9 0 83
2019-01-24 07:00:00 9.9 6 Noroeste 16 Noroeste 0 963.8 -0.7 82
2019-01-24 06:00:00 10.1 6 Oeste 17 Oeste 0 963.5 -1.5 81
2019-01-24 05:00:00 10.2 2 Noroeste 14 Oeste 0 963.9 -1.3 79
2019-01-24 04:00:00 10.3 5 Oeste 17 Oeste 0 964.5 -0.8 78
2019-01-24 03:00:00 10.3 6 Oeste 25 Oeste 0 965 -0.3 78
2019-01-24 02:00:00 10.6 10 Oeste 24 Oeste 0 965.2 -0.1 76
2019-01-24 01:00:00 10.5 8 Oeste 27 Oeste 0 965.3 0 75
2019-01-24 00:00:00 10.8 11 Oeste 27 Oeste 0 965.3 -0.1 72